Time;durP1;ratioP1;P1;durP2;ratioP2;P2;SDS_P1;SDS_P2;PMS_P1;PMS_P2;Temp;Humidity;BMP_temperature;BMP_pressure;BME280_temperature;BME280_humidity;BME280_pressure;Samples;Min_cycle;Max_cycle;Signal;HPM_P1;HPM_P2
2023/01/07 00:01:24;;;;;;;2.73;2.00;;;10.00;99.90;;;;;;4988922;28;20464;-67
2023/01/07 00:03:51;;;;;;;2.93;2.63;;;10.00;99.90;;;;;;4990408;28;20516;-68
2023/01/07 00:06:22;;;;;;;2.60;2.40;;;10.00;99.90;;;;;;4994443;28;20438;-67
2023/01/07 00:08:49;;;;;;;3.27;2.40;;;10.00;99.90;;;;;;5001448;28;20524;-67
2023/01/07 00:11:20;;;;;;;2.80;2.60;;;9.90;99.90;;;;;;4994904;28;20938;-68
2023/01/07 00:13:48;;;;;;;2.00;1.80;;;9.90;99.90;;;;;;4998690;28;20811;-68
2023/01/07 00:16:17;;;;;;;2.83;2.20;;;9.90;99.90;;;;;;5003996;28;20437;-68
2023/01/07 00:18:43;;;;;;;2.47;2.27;;;9.90;99.90;;;;;;4990382;28;20446;-68
2023/01/07 00:21:11;;;;;;;2.67;2.47;;;9.90;99.90;;;;;;4996822;28;20469;-68
2023/01/07 00:23:39;;;;;;;2.23;2.03;;;9.90;99.90;;;;;;5002704;28;20939;-68
2023/01/07 00:26:09;;;;;;;2.27;2.07;;;9.90;99.90;;;;;;4997592;28;20431;-68
2023/01/07 00:28:37;;;;;;;3.23;2.47;;;9.90;99.90;;;;;;5004793;28;20464;-68
2023/01/07 00:31:06;;;;;;;7.20;2.50;;;9.90;99.90;;;;;;5002361;28;20485;-67
2023/01/07 00:33:34;;;;;;;2.43;2.20;;;9.90;99.90;;;;;;5005770;28;20967;-66
2023/01/07 00:36:05;;;;;;;2.50;2.30;;;9.90;99.90;;;;;;5001565;28;20974;-67
2023/01/07 00:38:30;;;;;;;2.37;2.17;;;9.90;99.90;;;;;;5008986;28;20846;-66
2023/01/07 00:40:56;;;;;;;2.27;2.07;;;9.90;99.90;;;;;;5000416;28;20503;-66
2023/01/07 00:43:22;;;;;;;2.23;2.00;;;9.90;99.90;;;;;;5001793;28;20187;-66
2023/01/07 00:45:47;;;;;;;4.10;2.90;;;9.80;99.90;;;;;;5004849;28;20183;-66
2023/01/07 00:48:13;;;;;;;2.87;2.60;;;9.80;99.90;;;;;;5008196;28;20193;-66
2023/01/07 00:50:39;;;;;;;3.03;2.27;;;9.80;99.90;;;;;;4997875;28;20194;-66
2023/01/07 00:53:05;;;;;;;2.47;2.27;;;9.80;99.90;;;;;;5002720;28;20177;-66
2023/01/07 00:55:31;;;;;;;3.10;2.80;;;9.80;99.90;;;;;;5004940;28;20214;-66
2023/01/07 00:57:57;;;;;;;3.67;3.37;;;9.80;99.90;;;;;;5006451;28;20944;-66
2023/01/07 01:00:24;;;;;;;3.30;3.00;;;9.70;99.90;;;;;;5010428;28;20207;-66
2023/01/07 01:02:51;;;;;;;3.23;2.50;;;9.70;99.90;;;;;;4998912;28;20465;-66
2023/01/07 01:05:17;;;;;;;2.57;2.27;;;9.80;99.90;;;;;;5006568;28;20900;-66
2023/01/07 01:07:43;;;;;;;2.57;2.37;;;9.70;99.90;;;;;;4999496;28;20430;-66
2023/01/07 01:10:11;;;;;;;3.17;2.87;;;9.70;99.90;;;;;;5001756;28;20470;-66
2023/01/07 01:12:37;;;;;;;3.07;2.23;;;9.70;99.90;;;;;;5001432;28;20456;-66
2023/01/07 01:15:09;;;;;;;2.57;2.37;;;9.80;99.90;;;;;;5000282;28;20441;-66
2023/01/07 01:17:35;;;;;;;3.07;2.80;;;9.80;99.90;;;;;;5003454;28;20940;-66
2023/01/07 01:20:01;;;;;;;2.73;2.53;;;9.70;99.90;;;;;;4991823;28;20473;-66
2023/01/07 01:22:26;;;;;;;3.63;2.60;;;9.70;99.90;;;;;;4993946;28;20222;-67
2023/01/07 01:24:52;;;;;;;2.63;2.43;;;9.70;99.90;;;;;;5002746;28;20470;-67
2023/01/07 01:27:19;;;;;;;4.50;3.70;;;9.80;99.90;;;;;;4995919;28;21018;-66
2023/01/07 01:29:45;;;;;;;4.33;3.73;;;9.70;99.90;;;;;;5003604;28;20171;-66
2023/01/07 01:32:10;;;;;;;3.07;2.77;;;9.70;99.90;;;;;;5006042;28;20437;-67
2023/01/07 01:34:36;;;;;;;2.30;1.90;;;9.70;99.90;;;;;;5002147;28;20443;-67
2023/01/07 01:37:01;;;;;;;3.20;2.40;;;9.70;99.90;;;;;;5000070;28;20187;-67
2023/01/07 01:39:27;;;;;;;3.23;2.87;;;9.70;99.90;;;;;;4999391;28;20203;-66
2023/01/07 01:41:53;;;;;;;3.50;3.20;;;9.70;99.90;;;;;;4999654;28;20290;-66
2023/01/07 01:44:43;;;;;;;3.20;2.90;;;9.70;99.90;;;;;;5002325;28;20228;-67
2023/01/07 01:47:27;;;;;;;2.83;2.30;;;9.70;99.90;;;;;;4997368;28;20207;-66
2023/01/07 01:50:16;;;;;;;2.40;1.90;;;9.60;99.90;;;;;;4993462;28;20458;-66
2023/01/07 01:53:08;;;;;;;2.30;2.10;;;9.60;99.90;;;;;;4992555;28;20446;-66
2023/01/07 01:55:36;;;;;;;1.80;1.70;;;9.60;99.90;;;;;;5004450;28;20446;-66
2023/01/07 01:58:05;;;;;;;2.43;2.03;;;9.60;99.90;;;;;;5007907;28;20529;-66
2023/01/07 02:00:32;;;;;;;2.00;1.80;;;9.60;99.90;;;;;;5000420;28;20465;-66
2023/01/07 02:02:58;;;;;;;2.03;1.83;;;9.50;99.90;;;;;;5004793;28;20469;-66
2023/01/07 02:05:30;;;;;;;1.70;1.37;;;9.50;99.90;;;;;;4996934;28;20521;-66
2023/01/07 02:07:55;;;;;;;2.23;1.60;;;9.50;99.90;;;;;;5000744;28;20488;-66
2023/01/07 02:10:22;;;;;;;1.50;1.20;;;9.50;99.90;;;;;;4997833;28;20825;-66
2023/01/07 02:13:09;;;;;;;1.67;1.17;;;9.50;99.90;;;;;;4993556;28;20658;-66
2023/01/07 02:15:50;;;;;;;3.47;1.27;;;9.50;99.90;;;;;;5003295;28;20447;-67
2023/01/07 02:18:37;;;;;;;1.63;1.53;;;9.50;99.90;;;;;;5001233;28;20434;-66
2023/01/07 02:21:16;;;;;;;1.53;1.43;;;9.60;99.90;;;;;;4997770;28;20816;-66
2023/01/07 02:23:57;;;;;;;1.63;1.27;;;9.70;99.90;;;;;;4993162;28;21006;-66
2023/01/07 02:26:50;;;;;;;1.87;1.20;;;9.70;99.90;;;;;;5000660;28;20516;-66
2023/01/07 02:29:15;;;;;;;1.77;1.43;;;9.70;99.90;;;;;;4991552;28;20439;-66
2023/01/07 02:32:02;;;;;;;1.47;1.10;;;9.60;99.90;;;;;;4991440;28;20451;-66
2023/01/07 02:34:44;;;;;;;1.00;1.00;;;9.50;99.90;;;;;;4991578;28;20179;-66
2023/01/07 02:37:18;;;;;;;1.60;1.50;;;9.50;99.90;;;;;;4988681;28;20496;-65
2023/01/07 02:40:10;;;;;;;1.20;1.07;;;9.50;99.90;;;;;;4986232;28;20462;-67
2023/01/07 02:42:47;;;;;;;1.90;1.47;;;9.50;99.90;;;;;;4999012;28;20470;-67
2023/01/07 02:45:25;;;;;;;1.30;1.20;;;9.60;99.90;;;;;;4989739;28;20438;-66
2023/01/07 02:47:58;;;;;;;1.20;1.10;;;9.60;99.90;;;;;;4984272;28;20437;-66
2023/01/07 02:50:24;;;;;;;1.23;1.13;;;9.60;99.90;;;;;;5000749;28;20537;-66
2023/01/07 02:52:49;;;;;;;0.97;0.90;;;9.70;99.90;;;;;;5000316;28;20474;-66
2023/01/07 02:55:39;;;;;;;1.20;1.10;;;9.70;99.90;;;;;;4999633;28;20183;-66
2023/01/07 02:58:26;;;;;;;2.40;2.00;;;9.80;99.90;;;;;;4994946;28;20179;-66
2023/01/07 03:01:23;;;;;;;1.67;1.23;;;9.60;99.90;;;;;;4989260;28;20461;-66
2023/01/07 03:04:19;;;;;;;1.40;1.30;;;9.50;99.90;;;;;;4990482;28;20446;-66
2023/01/07 03:07:03;;;;;;;7.27;1.57;;;9.50;99.90;;;;;;4992312;28;20772;-66
2023/01/07 03:09:55;;;;;;;1.33;1.23;;;9.50;99.90;;;;;;4994995;28;20445;-66
2023/01/07 03:12:44;;;;;;;1.37;1.27;;;9.50;99.90;;;;;;4998189;28;20446;-66
2023/01/07 03:15:13;;;;;;;1.40;1.30;;;9.40;99.90;;;;;;5004234;28;20438;-66
2023/01/07 03:17:47;;;;;;;1.33;1.23;;;9.40;99.90;;;;;;5000275;28;20808;-66
2023/01/07 03:20:13;;;;;;;1.47;1.37;;;9.40;99.90;;;;;;4995294;28;20455;-66
2023/01/07 03:22:41;;;;;;;1.40;1.30;;;9.40;99.90;;;;;;4989790;28;20509;-66
2023/01/07 03:25:08;;;;;;;1.47;1.00;;;9.40;99.90;;;;;;4989527;28;20447;-67
2023/01/07 03:27:35;;;;;;;1.33;1.23;;;9.40;99.90;;;;;;4991563;28;20444;-66
2023/01/07 03:30:08;;;;;;;2.00;1.23;;;9.40;99.90;;;;;;4989241;28;20968;-66
2023/01/07 03:32:50;;;;;;;1.60;1.50;;;9.30;99.90;;;;;;4999590;28;20446;-66
2023/01/07 03:35:19;;;;;;;1.20;1.10;;;9.40;99.90;;;;;;4991592;28;20529;-66
2023/01/07 03:37:47;;;;;;;2.00;1.90;;;9.40;99.90;;;;;;4990236;28;20470;-66
2023/01/07 03:40:13;;;;;;;1.43;1.23;;;9.40;99.90;;;;;;4991251;28;20537;-66
2023/01/07 03:42:39;;;;;;;1.40;1.30;;;9.40;99.90;;;;;;4991386;28;20566;-66
2023/01/07 03:45:23;;;;;;;1.40;1.30;;;9.50;99.90;;;;;;4991222;28;20692;-66
2023/01/07 03:47:52;;;;;;;2.73;1.90;;;9.40;99.90;;;;;;4989734;28;20489;-66
2023/01/07 03:50:19;;;;;;;1.63;1.40;;;9.40;99.90;;;;;;4988673;28;20455;-66
2023/01/07 03:52:47;;;;;;;1.40;1.30;;;9.40;99.90;;;;;;4990321;28;20434;-66
2023/01/07 03:55:13;;;;;;;2.87;1.77;;;9.40;99.90;;;;;;4988508;28;20445;-66
2023/01/07 03:57:39;;;;;;;3.40;3.20;;;9.40;99.90;;;;;;4991445;28;20458;-66
2023/01/07 04:00:07;;;;;;;1.93;1.43;;;9.40;99.90;;;;;;4990235;28;21003;-66
2023/01/07 04:02:32;;;;;;;1.80;1.67;;;9.40;99.90;;;;;;4990828;28;20803;-66
2023/01/07 04:04:58;;;;;;;1.77;1.57;;;9.30;99.90;;;;;;4996320;28;20528;-66
2023/01/07 04:07:23;;;;;;;1.60;1.50;;;9.30;99.90;;;;;;4995612;28;20191;-66
2023/01/07 04:09:49;;;;;;;2.10;1.70;;;9.30;99.90;;;;;;4993786;28;20183;-66
2023/01/07 04:12:16;;;;;;;1.67;1.57;;;9.30;99.90;;;;;;4996934;28;20879;-66
2023/01/07 04:14:41;;;;;;;1.20;1.10;;;9.30;99.90;;;;;;4997891;28;20678;-66
2023/01/07 04:17:07;;;;;;;1.17;1.17;;;9.30;99.90;;;;;;4997590;28;20450;-66
2023/01/07 04:19:32;;;;;;;1.30;1.20;;;9.40;99.90;;;;;;4996466;28;20285;-66
2023/01/07 04:21:58;;;;;;;2.43;2.17;;;9.30;99.90;;;;;;4996645;28;20199;-66
2023/01/07 04:24:24;;;;;;;1.40;1.30;;;9.30;99.90;;;;;;4997797;28;20206;-66
2023/01/07 04:26:49;;;;;;;1.60;1.50;;;9.30;99.90;;;;;;4999983;28;20673;-66
2023/01/07 04:29:15;;;;;;;1.70;1.60;;;9.30;99.90;;;;;;4995693;28;20657;-66
2023/01/07 04:31:40;;;;;;;1.40;1.30;;;9.30;99.90;;;;;;5000988;28;20375;-66
2023/01/07 04:34:06;;;;;;;1.63;1.40;;;9.30;99.90;;;;;;4996906;28;20180;-66
2023/01/07 04:36:31;;;;;;;1.40;1.30;;;9.30;99.90;;;;;;4993770;28;20214;-66
2023/01/07 04:38:57;;;;;;;1.43;1.33;;;9.30;99.90;;;;;;4995977;28;20258;-66
2023/01/07 04:41:22;;;;;;;1.70;1.60;;;9.30;99.90;;;;;;4996568;28;20214;-66
2023/01/07 04:43:48;;;;;;;2.03;1.90;;;9.30;99.90;;;;;;4995899;28;20645;-66
2023/01/07 04:46:13;;;;;;;1.60;1.50;;;9.30;99.90;;;;;;4996380;28;20175;-66
2023/01/07 04:48:39;;;;;;;1.67;1.57;;;9.30;99.90;;;;;;4995959;28;20668;-66
2023/01/07 04:51:05;;;;;;;1.40;1.30;;;9.30;99.90;;;;;;4995283;28;20213;-67
2023/01/07 04:53:30;;;;;;;2.40;2.30;;;9.30;99.90;;;;;;4995793;28;20175;-66
2023/01/07 04:55:56;;;;;;;1.63;1.53;;;9.30;99.90;;;;;;4995765;28;20176;-66
2023/01/07 04:58:21;;;;;;;1.80;1.70;;;9.30;99.90;;;;;;4996172;28;20179;-66
2023/01/07 05:00:47;;;;;;;2.30;1.70;;;9.30;99.90;;;;;;4995567;28;20222;-66
2023/01/07 05:03:12;;;;;;;1.33;1.23;;;9.20;99.90;;;;;;4994155;28;20246;-66
2023/01/07 05:05:38;;;;;;;1.60;1.50;;;9.20;99.90;;;;;;4997860;28;20178;-66
2023/01/07 05:08:03;;;;;;;1.63;1.53;;;9.30;99.90;;;;;;5005417;28;20176;-66
2023/01/07 05:10:29;;;;;;;1.80;1.70;;;9.30;99.90;;;;;;5041757;23;20235;-70
2023/01/07 05:12:55;;;;;;;1.33;1.23;;;9.40;99.90;;;;;;5017255;28;20225;-69
2023/01/07 05:15:20;;;;;;;1.87;1.77;;;9.50;99.90;;;;;;5006647;28;20191;-70
2023/01/07 05:17:46;;;;;;;1.63;1.37;;;9.50;99.90;;;;;;5007178;28;20183;-70
2023/01/07 05:20:12;;;;;;;1.70;1.60;;;9.40;99.90;;;;;;5009209;28;20186;-69
2023/01/07 05:22:38;;;;;;;1.97;1.87;;;9.40;99.90;;;;;;4995918;28;20211;-70
2023/01/07 05:25:04;;;;;;;2.27;2.07;;;9.30;99.90;;;;;;5002923;28;20435;-70
2023/01/07 05:27:29;;;;;;;1.73;1.63;;;9.30;99.90;;;;;;4999088;28;20264;-70
2023/01/07 05:29:55;;;;;;;1.70;1.50;;;9.30;99.90;;;;;;4991319;28;20446;-70
2023/01/07 05:32:20;;;;;;;1.77;1.67;;;9.30;99.90;;;;;;4990600;28;20214;-70
2023/01/07 05:34:46;;;;;;;5.30;1.70;;;9.30;99.90;;;;;;5000071;28;20211;-70
2023/01/07 05:37:12;;;;;;;1.80;1.70;;;9.30;99.90;;;;;;5001662;28;20652;-70
2023/01/07 05:39:37;;;;;;;2.90;1.70;;;9.40;99.90;;;;;;5003772;28;20564;-70
2023/01/07 05:42:03;;;;;;;1.90;1.70;;;9.40;99.90;;;;;;4999552;28;20672;-70
2023/01/07 05:44:28;;;;;;;2.07;1.97;;;9.40;99.90;;;;;;4993831;28;20179;-70
2023/01/07 05:46:54;;;;;;;1.93;1.73;;;9.40;99.90;;;;;;5007251;28;20178;-69
2023/01/07 05:49:19;;;;;;;2.57;2.37;;;9.40;99.90;;;;;;5000798;28;20174;-70
2023/01/07 05:51:45;;;;;;;2.20;1.63;;;9.30;99.90;;;;;;5005145;28;20202;-70
2023/01/07 05:54:10;;;;;;;2.10;1.90;;;9.30;99.90;;;;;;5009476;28;20205;-70
2023/01/07 05:56:36;;;;;;;4.60;1.90;;;9.30;99.90;;;;;;5000133;28;20270;-70
2023/01/07 05:59:01;;;;;;;2.30;2.10;;;9.20;99.90;;;;;;5001798;28;20179;-70
2023/01/07 06:01:27;;;;;;;2.60;1.60;;;9.10;99.90;;;;;;4998759;28;20234;-69
2023/01/07 06:03:52;;;;;;;1.73;1.63;;;9.10;99.90;;;;;;4999064;28;20238;-70
2023/01/07 06:06:18;;;;;;;1.70;1.60;;;9.00;99.90;;;;;;5001943;28;20175;-70
2023/01/07 06:08:43;;;;;;;2.27;2.00;;;9.00;99.90;;;;;;5000635;28;20262;-69
2023/01/07 06:11:09;;;;;;;1.57;1.47;;;9.00;99.90;;;;;;4998258;28;20599;-69
2023/01/07 06:13:35;;;;;;;4.73;1.97;;;8.90;99.90;;;;;;5002908;28;20183;-69
2023/01/07 06:16:02;;;;;;;1.73;1.63;;;8.90;99.90;;;;;;4996490;28;20726;-69
2023/01/07 06:18:28;;;;;;;1.63;1.53;;;8.90;99.90;;;;;;4999880;28;20435;-69
2023/01/07 06:20:54;;;;;;;1.90;1.60;;;8.90;99.90;;;;;;5004594;28;21145;-70
2023/01/07 06:23:19;;;;;;;1.70;1.60;;;8.90;99.90;;;;;;4991035;28;20207;-69
2023/01/07 06:25:45;;;;;;;1.73;1.50;;;8.90;99.90;;;;;;4993183;28;20173;-69
2023/01/07 06:28:10;;;;;;;1.73;1.63;;;8.90;99.90;;;;;;4997962;28;20222;-70
2023/01/07 06:30:36;;;;;;;3.17;1.80;;;8.80;99.90;;;;;;4992756;28;20349;-70
2023/01/07 06:33:04;;;;;;;1.60;1.50;;;8.90;99.90;;;;;;4991326;28;20184;-69
2023/01/07 06:35:29;;;;;;;1.90;1.60;;;8.80;99.90;;;;;;4997297;28;20209;-70
2023/01/07 06:37:55;;;;;;;2.37;1.90;;;8.80;99.90;;;;;;5004489;28;21011;-69
2023/01/07 06:40:20;;;;;;;1.83;1.73;;;8.80;99.90;;;;;;4996637;28;20202;-69
2023/01/07 06:42:46;;;;;;;2.07;1.50;;;8.80;99.90;;;;;;5002187;28;20653;-70
2023/01/07 06:45:12;;;;;;;1.63;1.53;;;8.80;99.90;;;;;;5004719;28;20550;-69
2023/01/07 06:47:37;;;;;;;3.27;1.70;;;8.80;99.90;;;;;;5001769;28;20667;-69
2023/01/07 06:50:03;;;;;;;1.70;1.60;;;8.80;99.90;;;;;;4995974;28;20179;-69
2023/01/07 06:52:29;;;;;;;1.43;1.13;;;8.80;99.90;;;;;;4991919;28;20205;-70
2023/01/07 06:54:54;;;;;;;1.60;1.50;;;8.80;99.90;;;;;;5001190;28;20652;-69
2023/01/07 06:57:20;;;;;;;1.77;1.47;;;8.80;99.90;;;;;;4995970;28;20238;-69
2023/01/07 06:59:45;;;;;;;1.70;1.60;;;8.80;99.90;;;;;;5002007;28;20190;-70
2023/01/07 07:02:18;;;;;;;2.63;1.80;;;8.70;99.90;;;;;;5000625;28;20680;-70
2023/01/07 07:04:44;;;;;;;4.93;1.60;;;8.70;99.90;;;;;;4994523;28;20616;-70
2023/01/07 07:07:09;;;;;;;1.80;1.70;;;8.70;99.90;;;;;;4992731;28;20481;-70
2023/01/07 07:09:35;;;;;;;1.60;1.50;;;8.70;99.90;;;;;;5007550;28;20178;-69
2023/01/07 07:12:00;;;;;;;2.40;2.20;;;8.60;99.90;;;;;;4999387;28;20229;-69
2023/01/07 07:14:26;;;;;;;2.23;2.03;;;8.60;99.90;;;;;;4996949;28;20299;-69
2023/01/07 07:16:51;;;;;;;1.80;1.70;;;8.60;99.90;;;;;;4999145;28;20184;-69
2023/01/07 07:19:17;;;;;;;1.90;1.80;;;8.60;99.90;;;;;;4996911;28;20194;-69
2023/01/07 07:21:42;;;;;;;2.03;1.93;;;8.60;99.90;;;;;;4988959;28;20215;-67
2023/01/07 07:24:09;;;;;;;1.70;1.60;;;8.60;99.90;;;;;;4991815;28;20232;-73
2023/01/07 07:26:34;;;;;;;1.67;1.57;;;8.60;99.90;;;;;;4996312;28;20180;-72
2023/01/07 07:29:00;;;;;;;2.10;1.90;;;8.60;99.90;;;;;;4993992;28;20454;-73
2023/01/07 07:31:25;;;;;;;2.20;1.87;;;8.60;99.90;;;;;;5001950;28;20696;-73
2023/01/07 07:33:51;;;;;;;4.90;3.40;;;8.70;99.90;;;;;;5000522;28;20182;-69
2023/01/07 07:36:16;;;;;;;2.40;2.00;;;8.80;99.90;;;;;;4998584;28;20729;-68
2023/01/07 07:38:42;;;;;;;3.37;3.07;;;8.80;99.90;;;;;;4996182;28;20185;-67
2023/01/07 07:41:07;;;;;;;1.97;1.77;;;8.90;99.90;;;;;;4999413;28;20203;-68
2023/01/07 07:43:34;;;;;;;1.50;1.40;;;8.90;99.90;;;;;;5002662;28;20179;-68
2023/01/07 07:46:00;;;;;;;4.77;2.17;;;8.90;99.90;;;;;;4996881;28;20183;-71
2023/01/07 07:48:25;;;;;;;9.67;6.37;;;9.00;99.90;;;;;;4992682;28;20454;-71
2023/01/07 07:50:51;;;;;;;7.43;6.53;;;9.00;99.90;;;;;;5003999;28;20195;-71
2023/01/07 07:53:18;;;;;;;2.83;2.17;;;8.90;99.90;;;;;;4999972;28;20180;-71
2023/01/07 07:55:43;;;;;;;2.00;1.80;;;8.90;99.90;;;;;;4997762;28;20180;-68
2023/01/07 07:58:09;;;;;;;1.60;1.50;;;8.90;99.90;;;;;;5000515;28;20976;-71
2023/01/07 08:00:35;;;;;;;2.20;2.00;;;8.90;99.90;;;;;;5010989;28;20198;-71
2023/01/07 08:03:00;;;;;;;1.40;1.30;;;9.00;99.90;;;;;;5012179;28;20203;-71
2023/01/07 08:05:27;;;;;;;1.70;1.60;;;9.00;99.90;;;;;;4997375;28;20187;-71
2023/01/07 08:07:52;;;;;;;3.90;1.60;;;9.00;99.90;;;;;;5002386;28;20187;-71
2023/01/07 08:10:19;;;;;;;2.33;2.00;;;9.00;99.90;;;;;;5002243;28;20438;-71
2023/01/07 08:12:44;;;;;;;1.87;1.77;;;9.10;99.90;;;;;;4998204;28;20441;-70
2023/01/07 08:15:10;;;;;;;1.60;1.50;;;9.20;99.90;;;;;;4993274;28;20858;-70
2023/01/07 08:17:36;;;;;;;4.30;3.80;;;9.20;99.90;;;;;;4996881;28;20833;-71
2023/01/07 08:20:06;;;;;;;16.20;11.10;;;9.10;99.90;;;;;;5003391;28;20562;-71
2023/01/07 08:22:34;;;;;;;5.13;3.77;;;9.10;99.90;;;;;;4999990;28;20216;-71
2023/01/07 08:25:00;;;;;;;4.30;4.00;;;9.20;99.90;;;;;;4996934;28;20850;-71
2023/01/07 08:27:26;;;;;;;5.40;5.10;;;9.20;99.90;;;;;;5003309;28;20435;-71
2023/01/07 08:29:52;;;;;;;3.83;3.63;;;9.20;99.90;;;;;;4999011;28;20434;-71
2023/01/07 08:32:18;;;;;;;2.67;2.50;;;9.20;99.90;;;;;;4987609;28;20461;-71
2023/01/07 08:34:43;;;;;;;2.03;1.93;;;9.30;99.90;;;;;;4999466;28;20437;-71
2023/01/07 08:37:09;;;;;;;2.10;2.00;;;9.40;99.90;;;;;;5001562;28;20183;-71
2023/01/07 08:39:34;;;;;;;1.40;1.30;;;9.40;99.90;;;;;;4991373;28;20198;-70
2023/01/07 08:42:00;;;;;;;2.30;1.80;;;9.30;99.90;;;;;;5000290;28;20213;-71
2023/01/07 08:44:26;;;;;;;2.13;1.93;;;9.20;99.90;;;;;;4994732;28;20190;-71
2023/01/07 08:46:52;;;;;;;1.80;1.70;;;9.20;99.90;;;;;;4999405;28;20175;-71
2023/01/07 08:49:18;;;;;;;7.10;2.70;;;9.10;99.90;;;;;;4998301;28;20179;-70
2023/01/07 08:51:43;;;;;;;10.70;7.33;;;9.20;99.90;;;;;;5005642;28;20833;-71
2023/01/07 08:54:09;;;;;;;8.03;4.80;;;9.20;99.90;;;;;;5004243;28;20210;-71
2023/01/07 08:56:34;;;;;;;6.20;3.33;;;9.30;99.90;;;;;;5004366;28;20261;-71
2023/01/07 08:59:00;;;;;;;3.60;2.37;;;9.40;99.90;;;;;;5004884;28;20190;-71
2023/01/07 09:01:25;;;;;;;2.70;2.50;;;9.40;99.90;;;;;;5001866;28;20212;-71
2023/01/07 09:03:51;;;;;;;2.33;2.13;;;9.40;99.90;;;;;;4994937;28;20267;-70
2023/01/07 09:06:16;;;;;;;2.87;2.30;;;9.40;99.90;;;;;;5004300;28;20327;-69
2023/01/07 09:08:42;;;;;;;1.53;1.43;;;9.50;99.90;;;;;;5002347;28;20183;-70
2023/01/07 09:11:08;;;;;;;3.20;2.23;;;9.60;99.90;;;;;;4992361;28;20218;-70
2023/01/07 09:13:33;;;;;;;2.93;2.40;;;9.70;99.90;;;;;;5002703;28;20187;-70
2023/01/07 09:15:59;;;;;;;2.53;2.33;;;9.70;99.90;;;;;;5008487;28;20187;-70
2023/01/07 09:18:24;;;;;;;4.10;3.27;;;9.70;99.90;;;;;;5001894;28;20214;-70
2023/01/07 09:20:50;;;;;;;3.27;2.70;;;9.60;99.90;;;;;;5001500;28;20672;-70
2023/01/07 09:23:15;;;;;;;2.43;2.07;;;9.60;99.90;;;;;;5002371;28;20203;-70
2023/01/07 09:25:41;;;;;;;2.57;2.37;;;9.80;99.90;;;;;;5005788;28;20641;-70
2023/01/07 09:28:06;;;;;;;2.10;1.90;;;9.80;99.90;;;;;;5005110;28;20203;-69
2023/01/07 09:30:32;;;;;;;2.10;1.90;;;9.70;99.90;;;;;;5004054;28;20207;-70
2023/01/07 09:32:58;;;;;;;2.70;2.50;;;9.80;99.90;;;;;;5001076;28;20192;-69
2023/01/07 09:35:23;;;;;;;3.40;3.10;;;9.70;99.90;;;;;;5010252;28;20191;-70
2023/01/07 09:37:49;;;;;;;3.20;2.90;;;9.80;99.90;;;;;;4996786;28;20178;-70
2023/01/07 09:40:29;;;;;;;5.20;3.70;;;9.80;99.90;;;;;;4996466;28;20176;-69
2023/01/07 09:43:11;;;;;;;3.47;3.17;;;9.90;99.90;;;;;;4989725;28;20195;-69
2023/01/07 09:45:52;;;;;;;2.93;2.67;;;9.90;99.90;;;;;;5005858;28;20441;-70
2023/01/07 09:48:31;;;;;;;3.93;3.53;;;10.10;99.90;;;;;;5000277;28;20441;-69
2023/01/07 09:51:14;;;;;;;4.13;2.93;;;10.30;99.90;;;;;;4993655;28;20462;-70
2023/01/07 09:53:48;;;;;;;3.50;3.20;;;10.30;99.90;;;;;;5004013;28;20512;-70
2023/01/07 09:56:43;;;;;;;4.17;3.77;;;10.10;99.90;;;;;;5007067;28;20441;-70
2023/01/07 09:59:09;;;;;;;5.80;4.80;;;10.10;99.90;;;;;;4983904;28;20474;-69
2023/01/07 10:01:52;;;;;;;6.27;5.70;;;10.10;99.90;;;;;;5003852;28;20462;-70
2023/01/07 10:04:39;;;;;;;5.43;4.93;;;10.10;99.90;;;;;;5004573;28;20446;-69
2023/01/07 10:07:36;;;;;;;5.47;4.07;;;10.50;99.90;;;;;;5001183;28;20437;-70
2023/01/07 10:10:19;;;;;;;4.07;3.67;;;11.00;99.90;;;;;;5003978;28;20441;-69
2023/01/07 10:13:34;;;;;;;5.00;4.50;;;12.70;99.90;;;;;;4992830;28;20454;-69
2023/01/07 10:16:17;;;;;;;4.53;4.13;;;13.20;99.90;;;;;;4928616;29;20453;-69
2023/01/07 10:19:07;;;;;;;5.80;5.20;;;13.80;99.90;;;;;;4932339;29;20451;-70
2023/01/07 10:21:49;;;;;;;3.97;3.60;;;15.20;99.90;;;;;;4989009;28;20469;-70
2023/01/07 10:24:47;;;;;;;4.93;4.23;;;14.80;99.90;;;;;;5009640;28;20465;-69
2023/01/07 10:27:16;;;;;;;3.60;3.30;;;15.80;99.90;;;;;;4969977;28;20984;-70
2023/01/07 10:29:56;;;;;;;4.73;4.33;;;17.30;99.90;;;;;;5000972;28;20803;-69
2023/01/07 10:32:24;;;;;;;5.30;4.80;;;18.30;97.90;;;;;;5009681;28;20840;-69
2023/01/07 10:34:52;;;;;;;5.80;4.73;;;18.70;95.50;;;;;;5000421;28;20448;-69
2023/01/07 10:37:38;;;;;;;4.30;3.97;;;18.70;93.80;;;;;;5011587;28;20434;-69
2023/01/07 10:40:36;;;;;;;4.40;4.10;;;19.10;92.00;;;;;;4995506;28;20438;-69
2023/01/07 10:43:38;;;;;;;4.70;4.30;;;17.90;92.70;;;;;;4994882;28;20476;-69
2023/01/07 10:46:12;;;;;;;4.50;4.20;;;17.60;94.50;;;;;;4999860;28;20466;-70
2023/01/07 10:48:40;;;;;;;4.60;4.20;;;17.60;94.80;;;;;;5007999;28;20418;-70
2023/01/07 10:51:31;;;;;;;4.60;4.10;;;16.50;96.00;;;;;;5003724;28;20442;-68
2023/01/07 10:54:02;;;;;;;4.37;4.03;;;15.70;99.90;;;;;;4998717;28;20450;-70
2023/01/07 10:56:31;;;;;;;8.27;5.47;;;16.30;98.60;;;;;;5001056;28;20438;-69
2023/01/07 10:58:57;;;;;;;4.93;4.53;;;16.20;98.70;;;;;;5002166;28;20803;-69
2023/01/07 11:01:42;;;;;;;4.63;4.23;;;17.20;97.70;;;;;;5001261;28;20454;-69
2023/01/07 11:04:13;;;;;;;4.37;4.07;;;19.50;92.70;;;;;;4998560;28;20462;-69
2023/01/07 11:06:59;;;;;;;5.00;4.60;;;21.10;86.10;;;;;;5003550;28;20434;-70
2023/01/07 11:09:41;;;;;;;4.70;4.40;;;21.70;80.00;;;;;;5002419;28;20810;-70
2023/01/07 11:12:33;;;;;;;5.30;4.90;;;19.60;82.70;;;;;;5013809;22;20493;-70
2023/01/07 11:15:02;;;;;;;5.47;4.97;;;19.40;85.30;;;;;;4988035;28;20462;-71
2023/01/07 11:17:40;;;;;;;4.57;4.27;;;19.80;85.20;;;;;;4997135;28;20430;-70
2023/01/07 11:20:06;;;;;;;5.63;5.20;;;19.00;85.30;;;;;;5002348;28;20488;-70
2023/01/07 11:22:35;;;;;;;4.73;4.33;;;18.80;88.00;;;;;;4998969;28;20492;-70
2023/01/07 11:25:20;;;;;;;4.67;4.33;;;20.60;82.80;;;;;;4998048;28;20457;-68
2023/01/07 11:27:46;;;;;;;5.00;4.60;;;20.10;80.20;;;;;;4990420;28;20442;-69
2023/01/07 11:30:27;;;;;;;4.20;3.90;;;18.30;87.60;;;;;;5001380;28;20521;-70
2023/01/07 11:32:58;;;;;;;4.90;4.50;;;18.00;89.60;;;;;;4997887;28;20563;-69
2023/01/07 11:35:27;;;;;;;4.53;4.20;;;18.00;90.20;;;;;;4991215;28;20443;-70
2023/01/07 11:37:53;;;;;;;4.83;4.47;;;18.60;87.90;;;;;;5002649;28;20525;-70
2023/01/07 11:40:21;;;;;;;5.80;5.30;;;18.80;87.30;;;;;;4994238;28;20488;-69
2023/01/07 11:42:54;;;;;;;5.40;4.90;;;19.30;86.80;;;;;;4991406;28;20564;-70
2023/01/07 11:45:35;;;;;;;4.40;4.10;;;19.40;85.50;;;;;;4998857;28;20442;-71
2023/01/07 11:48:03;;;;;;;4.47;4.07;;;20.50;81.40;;;;;;4995902;28;20438;-70
2023/01/07 11:50:34;;;;;;;4.40;4.07;;;20.40;80.10;;;;;;5006611;28;20441;-70
2023/01/07 11:53:14;;;;;;;4.37;4.00;;;20.90;80.20;;;;;;5000222;28;20450;-70
2023/01/07 11:56:02;;;;;;;4.63;4.20;;;21.20;77.10;;;;;;4997420;28;20536;-71
2023/01/07 11:58:31;;;;;;;4.53;4.13;;;20.50;77.90;;;;;;4998269;28;20425;-70
2023/01/07 12:01:09;;;;;;;4.70;4.30;;;20.10;78.90;;;;;;4996352;28;21036;-70
2023/01/07 12:03:39;;;;;;;4.40;4.10;;;20.70;76.40;;;;;;4995888;28;20475;-70
2023/01/07 12:06:19;;;;;;;5.03;4.63;;;20.20;77.90;;;;;;4995898;28;20442;-70
2023/01/07 12:09:15;;;;;;;4.47;4.10;;;20.10;77.70;;;;;;4987966;28;21055;-70
2023/01/07 12:11:43;;;;;;;4.67;4.27;;;19.90;77.70;;;;;;4997810;28;21499;-72
2023/01/07 12:14:30;;;;;;;4.20;3.90;;;20.40;77.70;;;;;;4999189;28;20449;-70
2023/01/07 12:17:14;;;;;;;4.60;4.20;;;21.40;75.40;;;;;;4994981;28;20437;-72
2023/01/07 12:20:07;;;;;;;4.30;4.00;;;23.20;68.80;;;;;;4990577;28;20441;-71
2023/01/07 12:22:46;;;;;;;4.23;3.93;;;23.80;65.90;;;;;;5001014;28;20998;-71
2023/01/07 12:25:32;;;;;;;5.50;4.30;;;23.60;62.60;;;;;;4998804;28;20478;-70
2023/01/07 12:28:11;;;;;;;5.27;3.80;;;23.20;63.70;;;;;;5002743;28;20964;-71
2023/01/07 12:31:02;;;;;;;4.67;3.70;;;21.80;64.90;;;;;;5005275;28;20434;-71
2023/01/07 12:33:53;;;;;;;4.73;4.43;;;21.60;65.90;;;;;;5001057;28;21019;-70
2023/01/07 12:36:36;;;;;;;4.93;4.53;;;22.40;66.90;;;;;;4991280;28;20438;-70
2023/01/07 12:39:09;;;;;;;4.70;4.30;;;22.10;64.10;;;;;;4997181;28;20473;-70
2023/01/07 12:41:42;;;;;;;5.30;4.83;;;21.50;67.20;;;;;;5003929;28;20464;-70
2023/01/07 12:44:18;;;;;;;4.70;4.30;;;22.10;64.80;;;;;;5002503;28;20817;-72
2023/01/07 12:47:06;;;;;;;4.57;4.17;;;21.60;66.40;;;;;;5006145;28;20433;-71
2023/01/07 12:49:56;;;;;;;4.80;4.40;;;20.90;67.70;;;;;;5004487;28;20479;-71
2023/01/07 12:52:45;;;;;;;3.60;3.30;;;19.70;71.40;;;;;;4998350;28;20864;-72
2023/01/07 12:56:07;;;;;;;5.93;4.40;;;21.50;68.30;;;;;;5003644;28;20902;-71
2023/01/07 12:59:05;;;;;;;4.37;4.07;;;20.50;67.20;;;;;;4983056;28;20447;-71
2023/01/07 13:01:47;;;;;;;4.73;4.33;;;19.90;70.50;;;;;;4977595;28;20466;-70
2023/01/07 13:04:16;;;;;;;4.10;3.80;;;19.90;69.40;;;;;;4997445;28;20470;-72
2023/01/07 13:06:54;;;;;;;4.80;4.40;;;20.30;69.20;;;;;;5005098;28;20437;-75
2023/01/07 13:09:57;;;;;;;4.10;3.80;;;19.20;70.90;;;;;;4998382;28;20449;-72
2023/01/07 13:12:44;;;;;;;3.87;3.60;;;19.30;71.70;;;;;;5005880;28;20471;-71
2023/01/07 13:15:32;;;;;;;4.70;4.40;;;20.30;70.70;;;;;;5000969;28;20939;-70
2023/01/07 13:18:20;;;;;;;4.13;3.83;;;20.70;68.30;;;;;;5003310;28;20437;-71